Time;durP1;ratioP1;P1;durP2;ratioP2;P2;SDS_P1;SDS_P2;PMS_P1;PMS_P2;Temp;Humidity;BMP_temperature;BMP_pressure;BME280_temperature;BME280_humidity;BME280_pressure;Samples;Min_cycle;Max_cycle;Signal;HPM_P1;HPM_P2
2022/02/04 00:27:58;;;;;;;13.52;7.60;;;0.40;64.00;;;;;;5160339;27;20040;-35
2022/02/04 00:30:29;;;;;;;12.63;5.97;;;0.50;64.00;;;;;;5160067;27;20308;-45
2022/02/04 00:32:57;;;;;;;;;;;0.50;64.00;;;;;;5160679;27;20058;-43
2022/02/04 00:38:23;;;;;;;10.65;6.05;;;0.50;64.00;;;;;;5160393;27;20045;-43
2022/02/04 00:40:53;;;;;;;11.15;6.32;;;0.50;64.00;;;;;;5159855;27;20037;-43
2022/02/04 00:43:19;;;;;;;10.75;6.32;;;0.50;63.90;;;;;;5160075;27;20026;-42
2022/02/04 00:46:24;;;;;;;11.40;5.85;;;0.50;63.70;;;;;;5159516;27;20049;-32
2022/02/04 01:26:10;;;;;;;9.27;5.00;;;0.30;63.40;;;;;;5158654;27;20368;-43
2022/02/04 01:28:39;;;;;;;10.77;5.25;;;0.30;63.20;;;;;;5158934;27;20039;-33
2022/02/04 01:31:05;;;;;;;19.77;8.27;;;0.30;63.20;;;;;;5158701;27;20030;-42
2022/02/04 01:33:32;;;;;;;8.13;5.05;;;0.30;63.30;;;;;;5158989;27;20026;-42
2022/02/04 01:35:58;;;;;;;10.77;5.30;;;0.30;63.30;;;;;;5158536;27;20031;-32
2022/02/04 01:38:25;;;;;;;8.35;5.25;;;0.30;63.10;;;;;;5159033;27;20022;-43
2022/02/04 01:40:52;;;;;;;10.73;5.13;;;0.30;62.90;;;;;;5158581;27;20030;-44
2022/02/04 01:43:21;;;;;;;10.30;5.07;;;0.30;63.00;;;;;;5158694;27;20034;-35
2022/02/04 01:46:02;;;;;;;8.45;4.60;;;0.20;62.70;;;;;;5158287;27;20057;-32
2022/02/04 01:48:28;;;;;;;9.02;5.10;;;0.20;62.60;;;;;;5158430;27;20037;-32
2022/02/04 01:50:54;;;;;;;8.50;5.22;;;0.20;62.50;;;;;;5158017;27;20331;-43
2022/02/04 01:53:28;;;;;;;9.23;5.25;;;0.20;62.70;;;;;;5158710;27;20030;-44
2022/02/04 01:55:58;;;;;;;11.40;6.25;;;0.20;62.70;;;;;;5158358;27;20297;-43
2022/02/04 01:58:24;;;;;;;9.57;5.47;;;0.10;62.70;;;;;;5158778;27;20049;-43
2022/02/04 02:00:50;;;;;;;9.82;5.78;;;0.20;62.70;;;;;;5158171;27;20034;-32
2022/02/04 02:03:17;;;;;;;9.40;5.53;;;0.10;62.50;;;;;;5158103;27;20037;-43
2022/02/04 02:05:43;;;;;;;10.18;5.20;;;0.10;62.50;;;;;;5158034;27;20042;-43
2022/02/04 02:08:12;;;;;;;9.38;5.32;;;0.10;62.50;;;;;;5157970;27;20043;-33
2022/02/04 02:10:38;;;;;;;10.52;5.82;;;0.10;62.50;;;;;;5157942;27;20102;-43
2022/02/04 02:13:18;;;;;;;10.25;5.40;;;0.10;62.60;;;;;;5158120;27;20033;-43
2022/02/04 02:16:14;;;;;;;11.02;5.72;;;0.10;62.60;;;;;;5157545;27;20038;-43
2022/02/04 02:35:33;;;;;;;9.98;5.65;;;0.00;61.90;;;;;;5157581;27;20033;-32
2022/02/04 02:59:07;;;;;;;11.30;5.57;;;0.00;62.10;;;;;;5157634;27;20026;-44
2022/02/04 03:01:33;;;;;;;11.82;5.18;;;0.00;62.10;;;;;;5157390;27;20030;-42
2022/02/04 03:04:04;;;;;;;11.77;5.75;;;0.00;62.10;;;;;;5157360;27;20432;-42
2022/02/04 03:06:30;;;;;;;11.02;5.93;;;0.00;62.20;;;;;;5157146;27;20034;-32
2022/02/04 03:08:56;;;;;;;9.57;5.40;;;0.00;62.10;;;;;;5157054;27;20054;-32
2022/02/04 03:11:21;;;;;;;8.10;5.03;;;0.00;62.10;;;;;;5157417;27;20023;-33
2022/02/04 03:13:47;;;;;;;12.10;5.88;;;0.00;62.10;;;;;;5157345;27;20438;-43
2022/02/04 03:16:16;;;;;;;13.90;6.43;;;-0.10;62.00;;;;;;5157225;27;20046;-33
2022/02/04 03:18:46;;;;;;;10.82;6.00;;;-0.10;62.00;;;;;;5157745;27;20035;-32
2022/02/04 03:21:23;;;;;;;11.05;5.88;;;-0.10;62.00;;;;;;5157233;27;20038;-46
2022/02/04 03:23:54;;;;;;;10.80;5.88;;;-0.20;62.10;;;;;;5157636;27;20030;-32
2022/02/04 03:26:30;;;;;;;11.50;6.15;;;-0.30;62.20;;;;;;5158603;27;20045;-33
2022/02/04 03:28:55;;;;;;;11.73;6.40;;;-0.30;62.20;;;;;;5161441;27;20276;-33
2022/02/04 03:31:22;;;;;;;11.60;6.25;;;-0.30;62.30;;;;;;5161188;27;20454;-43
2022/02/04 03:33:48;;;;;;;105.85;32.72;;;-0.40;62.30;;;;;;5161701;27;20407;-42
2022/02/04 03:36:14;;;;;;;11.18;5.95;;;-0.50;62.30;;;;;;5160980;27;20027;-43
2022/02/04 03:38:40;;;;;;;12.77;6.43;;;-0.50;62.40;;;;;;5161583;27;20449;-32
2022/02/04 03:41:07;;;;;;;12.77;6.38;;;-0.60;62.60;;;;;;5160645;27;20058;-42
2022/02/04 03:43:33;;;;;;;12.88;7.05;;;-0.60;62.80;;;;;;5161203;27;20105;-32
2022/02/04 03:45:59;;;;;;;15.65;6.28;;;-0.70;62.90;;;;;;5160863;27;20035;-42
2022/02/04 03:48:25;;;;;;;12.85;6.78;;;-0.70;62.90;;;;;;5161158;27;20333;-32
2022/02/04 03:50:50;;;;;;;13.32;7.40;;;-0.70;63.10;;;;;;5160498;27;20035;-34
2022/02/04 03:53:17;;;;;;;10.77;6.30;;;-0.80;63.20;;;;;;5161087;27;20105;-34
2022/02/04 03:55:43;;;;;;;12.50;6.78;;;-0.80;63.20;;;;;;5160174;27;20405;-43
2022/02/04 03:58:12;;;;;;;14.38;6.68;;;-0.90;63.10;;;;;;5160610;27;20057;-33
2022/02/04 04:00:38;;;;;;;13.63;7.18;;;-0.90;63.20;;;;;;5160497;27;20031;-42
2022/02/04 04:03:05;;;;;;;12.02;6.70;;;-0.90;63.30;;;;;;5160961;27;20450;-42
2022/02/04 04:05:32;;;;;;;12.80;7.13;;;-0.90;63.30;;;;;;5159971;27;20030;-33
2022/02/04 04:07:58;;;;;;;14.00;7.10;;;-0.90;63.50;;;;;;5160282;27;20051;-37
2022/02/04 04:10:26;;;;;;;13.95;6.80;;;-1.00;63.50;;;;;;5160412;27;20292;-32
2022/02/04 04:12:54;;;;;;;20.35;13.02;;;-1.00;63.50;;;;;;5160570;27;20033;-43
2022/02/04 04:15:20;;;;;;;16.92;7.63;;;-1.00;63.60;;;;;;5159948;27;20102;-42
2022/02/04 04:17:46;;;;;;;12.77;6.90;;;-1.00;63.60;;;;;;5160255;27;20438;-42
2022/02/04 04:20:18;;;;;;;14.23;6.00;;;-1.00;63.70;;;;;;5160257;27;20027;-32
2022/02/04 04:22:44;;;;;;;13.18;6.97;;;-1.10;63.60;;;;;;5160559;27;20054;-32
2022/02/04 04:25:11;;;;;;;12.18;6.38;;;-1.10;63.70;;;;;;5159903;27;20035;-42
2022/02/04 04:27:40;;;;;;;12.95;6.68;;;-1.10;63.80;;;;;;5160062;27;20030;-32
2022/02/04 04:30:07;;;;;;;12.85;7.20;;;-1.10;63.90;;;;;;5160367;27;20354;-42
2022/02/04 04:32:33;;;;;;;12.75;7.03;;;-1.20;63.90;;;;;;5160502;27;20034;-33
2022/02/04 04:34:59;;;;;;;12.13;6.03;;;-1.20;64.00;;;;;;5159588;27;20037;-44
2022/02/04 04:37:25;;;;;;;12.45;6.30;;;-1.20;64.00;;;;;;5159976;27;20098;-42
2022/02/04 04:40:05;;;;;;;15.80;7.03;;;-1.20;64.10;;;;;;5159549;27;20031;-44
2022/02/04 04:42:49;;;;;;;13.77;6.57;;;-1.20;64.10;;;;;;5160165;27;20035;-42
2022/02/04 04:45:48;;;;;;;14.43;6.72;;;-1.30;64.10;;;;;;5159428;27;20062;-32
2022/02/04 05:29:19;;;;;;;14.73;7.75;;;-1.60;64.90;;;;;;5158950;27;20037;-42
2022/02/04 05:31:45;;;;;;;13.65;7.10;;;-1.60;64.90;;;;;;5158114;27;20114;-32
2022/02/04 05:34:14;;;;;;;15.93;7.90;;;-1.60;64.90;;;;;;5158502;27;20030;-42
2022/02/04 05:36:43;;;;;;;16.33;7.82;;;-1.60;64.90;;;;;;5158709;27;20023;-33
2022/02/04 05:39:11;;;;;;;15.00;7.28;;;-1.60;65.00;;;;;;5158308;27;20030;-35
2022/02/04 05:41:40;;;;;;;14.52;7.25;;;-1.60;65.10;;;;;;5158346;27;20078;-42
2022/02/04 05:44:10;;;;;;;14.90;8.35;;;-1.70;65.20;;;;;;5158171;27;20038;-43
2022/02/04 05:46:48;;;;;;;17.40;8.30;;;-1.70;65.20;;;;;;5158183;27;20033;-35
2022/02/04 05:49:16;;;;;;;12.50;6.65;;;-1.70;65.30;;;;;;5157126;27;20035;-32
2022/02/04 05:52:09;;;;;;;13.77;7.63;;;-1.70;65.20;;;;;;5158147;27;20023;-34
2022/02/04 05:57:11;;;;;;;15.93;8.13;;;-1.60;65.20;;;;;;5158781;27;20023;-42
2022/02/04 06:00:08;;;;;;;14.10;6.97;;;-1.60;65.20;;;;;;5157548;27;20031;-42
2022/02/04 06:02:35;;;;;;;19.17;7.63;;;-1.70;65.10;;;;;;5158253;27;20018;-32
2022/02/04 06:05:17;;;;;;;15.98;8.15;;;-1.70;65.10;;;;;;5157405;27;20035;-43
2022/02/04 06:08:20;;;;;;;16.25;8.32;;;-1.70;65.20;;;;;;5157860;27;20030;-34
2022/02/04 06:23:59;;;;;;;19.17;9.10;;;-1.60;65.20;;;;;;5157522;27;20072;-32
2022/02/04 06:26:25;;;;;;;21.70;9.27;;;-1.60;65.00;;;;;;5157428;27;20030;-36
2022/02/04 06:28:50;;;;;;;25.75;10.10;;;-1.50;65.00;;;;;;5156577;27;20038;-32
2022/02/04 06:31:17;;;;;;;22.35;10.45;;;-1.50;65.00;;;;;;5157037;27;20359;-32
2022/02/04 06:33:43;;;;;;;20.95;9.95;;;-1.50;65.20;;;;;;5139068;27;20076;-44
2022/02/04 06:36:09;;;;;;;20.65;9.95;;;-1.50;65.10;;;;;;5157004;27;20075;-42
2022/02/04 06:38:35;;;;;;;20.13;9.98;;;-1.50;65.00;;;;;;5158015;27;20392;-42
2022/02/04 06:41:02;;;;;;;22.67;10.30;;;-1.50;65.00;;;;;;5157006;27;20319;-33
2022/02/04 06:43:29;;;;;;;20.52;9.25;;;-1.40;64.90;;;;;;5157676;27;20399;-33
2022/02/04 06:45:54;;;;;;;19.88;9.23;;;-1.40;64.80;;;;;;5157092;27;20034;-42
2022/02/04 06:48:20;;;;;;;23.75;10.55;;;-1.40;64.80;;;;;;5157073;27;20023;-32
2022/02/04 06:50:46;;;;;;;21.38;8.88;;;-1.40;64.90;;;;;;5156964;27;20043;-37
2022/02/04 06:53:12;;;;;;;17.20;8.73;;;-1.40;64.70;;;;;;5157175;27;20046;-44
2022/02/04 06:55:38;;;;;;;15.70;8.88;;;-1.30;64.80;;;;;;5156953;27;20090;-42
2022/02/04 06:58:04;;;;;;;17.50;8.60;;;-1.30;64.70;;;;;;5157290;27;20326;-32
2022/02/04 07:00:29;;;;;;;18.60;8.45;;;-1.30;64.80;;;;;;5159044;27;20035;-42
2022/02/04 07:02:56;;;;;;;21.58;9.18;;;-1.30;64.60;;;;;;5161677;27;20030;-32
2022/02/04 07:05:23;;;;;;;19.88;9.52;;;-1.30;64.70;;;;;;5160371;27;20023;-42
2022/02/04 07:08:03;;;;;;;19.05;8.98;;;-1.20;64.80;;;;;;5160928;27;20023;-32
2022/02/04 07:13:29;;;;;;;16.88;8.98;;;-1.10;64.70;;;;;;5150485;27;20058;-42
2022/02/04 07:21:23;;;;;;;13.40;7.05;;;-1.00;64.70;;;;;;5160880;27;20037;-42
2022/02/04 07:23:49;;;;;;;15.40;7.68;;;-1.00;64.30;;;;;;5161373;27;20022;-36
2022/02/04 07:26:15;;;;;;;16.90;8.68;;;-0.90;64.30;;;;;;5160520;27;20122;-43
2022/02/04 07:28:40;;;;;;;14.57;7.50;;;-0.90;64.40;;;;;;5161133;27;20058;-32
2022/02/04 07:31:06;;;;;;;15.45;7.53;;;-0.90;64.00;;;;;;5160210;27;20022;-42
2022/02/04 07:33:45;;;;;;;16.33;7.75;;;-0.90;63.90;;;;;;5161206;27;20403;-32
2022/02/04 07:41:40;;;;;;;10.88;6.22;;;-0.90;63.80;;;;;;5160964;27;20462;-42
2022/02/04 07:44:06;;;;;;;14.55;7.20;;;-0.90;63.80;;;;;;5160584;27;20031;-36
2022/02/04 07:46:33;;;;;;;16.05;9.18;;;-0.90;63.80;;;;;;5160407;27;20027;-33
2022/02/04 07:48:59;;;;;;;13.45;7.40;;;-0.80;63.80;;;;;;5160709;27;20027;-42
2022/02/04 07:51:24;;;;;;;13.82;7.13;;;-0.80;63.60;;;;;;5160472;27;20113;-32
2022/02/04 07:53:50;;;;;;;10.13;6.15;;;-0.80;63.60;;;;;;5160425;27;20058;-32
2022/02/04 07:56:20;;;;;;;13.57;7.45;;;-0.80;63.70;;;;;;5160221;27;20019;-32
2022/02/04 07:58:58;;;;;;;11.77;7.10;;;-0.80;63.60;;;;;;5160845;27;20087;-43
2022/02/04 08:01:28;;;;;;;15.27;6.50;;;-0.80;63.80;;;;;;5159940;27;20087;-32
2022/02/04 08:04:01;;;;;;;16.17;6.88;;;-0.70;63.90;;;;;;5160430;27;20085;-32
2022/02/04 08:06:29;;;;;;;17.08;8.70;;;-0.70;63.60;;;;;;5159697;27;20079;-42
2022/02/04 08:09:06;;;;;;;15.70;8.35;;;-0.60;63.50;;;;;;5159584;27;20102;-35
2022/02/04 08:51:29;;;;;;;12.35;6.85;;;0.10;62.40;;;;;;5154080;27;20058;-43
2022/02/04 08:54:08;;;;;;;;;;;0.10;62.40;;;;;;5160107;27;20042;-31
2022/02/04 08:56:45;;;;;;;13.95;6.78;;;0.20;62.50;;;;;;5159108;27;19990;-31
2022/02/04 08:59:17;;;;;;;11.98;7.15;;;0.20;62.40;;;;;;5159276;27;20030;-33
2022/02/04 09:01:51;;;;;;;17.08;7.32;;;0.20;62.10;;;;;;5159269;27;20026;-42
2022/02/04 09:04:19;;;;;;;17.15;8.43;;;0.20;62.30;;;;;;5158619;27;20027;-31
2022/02/04 09:07:00;;;;;;;15.00;6.80;;;0.30;62.40;;;;;;5159130;27;20034;-42
2022/02/04 09:09:46;;;;;;;12.95;6.68;;;0.30;62.30;;;;;;5158369;27;20063;-33
2022/02/04 09:20:44;;;;;;;13.20;5.32;;;0.50;61.60;;;;;;5144043;27;20080;-31
2022/02/04 09:23:10;;;;;;;166.85;55.53;;;0.50;61.40;;;;;;5158353;27;20105;-42
2022/02/04 09:25:37;;;;;;;11.63;5.68;;;0.60;60.50;;;;;;5158243;27;20054;-32
2022/02/04 09:28:04;;;;;;;10.70;5.88;;;0.50;59.80;;;;;;5158698;27;20023;-42
2022/02/04 09:30:30;;;;;;;13.43;5.72;;;0.50;60.20;;;;;;5158578;27;20066;-33
2022/02/04 09:32:56;;;;;;;11.95;6.20;;;0.60;60.40;;;;;;5158996;27;20026;-42
2022/02/04 09:35:23;;;;;;;11.38;5.88;;;0.60;60.40;;;;;;5158196;27;20030;-43
2022/02/04 09:37:50;;;;;;;23.92;9.80;;;0.70;60.40;;;;;;5158714;27;20022;-32
2022/02/04 09:40:17;;;;;;;12.88;5.95;;;0.70;60.20;;;;;;5158153;27;20035;-32
2022/02/04 09:42:44;;;;;;;11.85;6.25;;;0.70;60.00;;;;;;5157502;27;20019;-42
2022/02/04 09:45:14;;;;;;;9.30;5.90;;;0.80;59.70;;;;;;5157811;27;20323;-42
2022/02/04 09:47:42;;;;;;;10.50;5.60;;;0.80;59.80;;;;;;5158667;27;20027;-42
2022/02/04 09:50:16;;;;;;;8.23;4.68;;;0.80;59.00;;;;;;5158370;27;20056;-32
2022/02/04 10:15:42;;;;;;;9.52;4.88;;;1.00;57.70;;;;;;5157915;27;20052;-42
2022/02/04 10:18:27;;;;;;;8.45;4.55;;;1.00;57.70;;;;;;5158106;27;20110;-42
2022/02/04 10:20:53;;;;;;;20.73;10.02;;;1.00;57.40;;;;;;5157695;27;20038;-42
2022/02/04 10:23:19;;;;;;;6.47;3.88;;;1.00;57.80;;;;;;5158092;27;20296;-32
2022/02/04 10:25:45;;;;;;;8.25;4.70;;;1.00;57.50;;;;;;5156987;27;20030;-34
2022/02/04 10:28:21;;;;;;;8.80;5.10;;;1.10;57.40;;;;;;5157336;27;20030;-32
2022/02/04 10:31:21;;;;;;;9.65;5.50;;;1.10;57.20;;;;;;5157382;27;20018;-32
2022/02/04 10:34:07;;;;;;;8.32;5.22;;;1.20;57.50;;;;;;5157548;27;20049;-32
2022/02/04 10:36:42;;;;;;;81.63;27.45;;;1.20;57.60;;;;;;5157134;27;20049;-33
2022/02/04 10:42:22;;;;;;;14.30;6.53;;;1.30;57.80;;;;;;5138547;27;20087;-42
2022/02/04 10:45:23;;;;;;;9.27;4.97;;;1.40;57.80;;;;;;5156805;27;20037;-32
2022/02/04 10:58:29;;;;;;;15.48;7.25;;;1.70;57.10;;;;;;5157498;27;20031;-44
2022/02/04 11:03:27;;;;;;;11.50;5.63;;;1.60;57.20;;;;;;5157621;27;20121;-42
2022/02/04 11:31:24;;;;;;;9.38;5.00;;;1.90;57.00;;;;;;5156666;27;20030;-42
2022/02/04 11:54:33;;;;;;;8.95;5.10;;;2.10;55.30;;;;;;5160720;27;20037;-32
2022/02/04 11:56:59;;;;;;;145.50;45.88;;;2.10;55.10;;;;;;5160618;27;20023;-33
2022/02/04 11:59:39;;;;;;;11.32;5.90;;;2.00;55.30;;;;;;5160055;27;20064;-44
2022/02/04 12:02:26;;;;;;;84.88;28.45;;;2.00;55.40;;;;;;5160449;27;20483;-32
2022/02/04 12:05:07;;;;;;;11.25;5.97;;;2.00;55.60;;;;;;5159972;27;20066;-43
2022/02/04 12:07:55;;;;;;;12.32;6.28;;;2.00;55.80;;;;;;5160324;27;20110;-32
2022/02/04 12:10:28;;;;;;;13.10;6.90;;;2.00;55.70;;;;;;5159675;27;20034;-42
2022/02/04 12:13:04;;;;;;;8.90;5.07;;;2.00;55.80;;;;;;5160504;27;20050;-32
2022/02/04 12:15:33;;;;;;;14.32;7.07;;;2.10;55.90;;;;;;5159695;27;20050;-33
2022/02/04 12:18:10;;;;;;;80.32;24.17;;;2.10;55.50;;;;;;5160069;27;20042;-32
2022/02/04 12:20:55;;;;;;;11.93;6.30;;;2.10;55.50;;;;;;5159894;27;20326;-33
2022/02/04 12:23:29;;;;;;;15.52;6.70;;;2.20;55.20;;;;;;5160272;27;20035;-32
2022/02/04 12:26:05;;;;;;;13.88;7.43;;;2.20;55.10;;;;;;5159877;27;20038;-42
2022/02/04 12:28:42;;;;;;;14.65;7.25;;;2.30;55.30;;;;;;5160312;27;20105;-31
2022/02/04 12:31:23;;;;;;;11.90;6.30;;;2.30;54.90;;;;;;5159543;27;20027;-33
2022/02/04 12:34:03;;;;;;;12.75;6.72;;;2.50;54.80;;;;;;5159880;27;20079;-42
2022/02/04 12:36:34;;;;;;;11.60;6.07;;;2.60;54.80;;;;;;5159592;27;20392;-32
2022/02/04 12:39:10;;;;;;;10.23;5.32;;;2.80;54.60;;;;;;5159485;27;20364;-32
2022/02/04 12:41:51;;;;;;;10.75;6.15;;;3.00;54.50;;;;;;5140833;27;20376;-42
2022/02/04 12:44:22;;;;;;;11.10;6.07;;;3.10;54.10;;;;;;5159513;27;20067;-42
2022/02/04 12:46:51;;;;;;;15.18;7.72;;;3.20;53.70;;;;;;5159155;27;20054;-32
2022/02/04 12:49:20;;;;;;;9.80;5.50;;;3.30;53.90;;;;;;5158744;27;20331;-32
2022/02/04 12:54:30;;;;;;;10.00;5.35;;;3.50;53.50;;;;;;5152415;27;20045;-42
2022/02/04 13:11:16;;;;;;;13.00;7.47;;;4.00;52.70;;;;;;5138263;27;20471;-35
2022/02/04 13:13:49;;;;;;;11.95;6.03;;;4.10;52.40;;;;;;5138199;27;20059;-42
2022/02/04 13:16:29;;;;;;;18.65;8.98;;;4.10;52.10;;;;;;5136642;27;20062;-42
2022/02/04 13:19:01;;;;;;;10.55;5.80;;;4.20;51.80;;;;;;5138070;27;20035;-32
2022/02/04 13:21:28;;;;;;;12.63;5.93;;;4.20;51.60;;;;;;5137825;27;20334;-43
2022/02/04 13:24:00;;;;;;;18.50;10.45;;;4.10;51.40;;;;;;5137994;27;20034;-44
2022/02/04 13:26:29;;;;;;;10.60;5.88;;;4.10;51.20;;;;;;5137714;27;20042;-33
2022/02/04 13:28:59;;;;;;;10.98;6.13;;;4.00;51.30;;;;;;5137886;27;20035;-44
2022/02/04 13:31:26;;;;;;;11.68;6.28;;;3.90;51.50;;;;;;5137529;27;20427;-44
2022/02/04 13:33:53;;;;;;;12.00;6.35;;;3.80;51.40;;;;;;5136025;27;20039;-43
2022/02/04 13:41:43;;;;;;;11.27;6.90;;;3.40;51.60;;;;;;5137408;27;20043;-43
2022/02/04 13:47:07;;;;;;;11.23;7.03;;;3.10;52.10;;;;;;5137894;27;20038;-33
2022/02/04 13:50:01;;;;;;;14.88;7.10;;;3.00;52.30;;;;;;5136711;27;20027;-33
2022/02/04 13:55:27;;;;;;;14.00;6.85;;;2.80;52.80;;;;;;5137159;27;20114;-43
2022/02/04 14:01:12;;;;;;;10.75;6.75;;;2.60;53.00;;;;;;5137266;27;20433;-43
2022/02/04 14:03:45;;;;;;;12.60;8.00;;;2.50;53.10;;;;;;5137362;27;20387;-33
2022/02/04 14:11:34;;;;;;;13.00;6.82;;;2.40;53.40;;;;;;5136230;27;20084;-36
2022/02/04 14:14:10;;;;;;;19.48;9.55;;;2.40;53.50;;;;;;5137079;27;20079;-32
2022/02/04 14:16:36;;;;;;;13.38;7.60;;;2.40;53.70;;;;;;5136542;27;20023;-43
2022/02/04 14:19:03;;;;;;;14.80;7.72;;;2.40;53.80;;;;;;5137306;27;20045;-33
2022/02/04 14:21:29;;;;;;;12.35;6.70;;;2.40;53.60;;;;;;5136680;27;20038;-33
2022/02/04 14:23:55;;;;;;;14.68;7.63;;;2.40;53.10;;;;;;5137015;27;20431;-33
2022/02/04 14:26:29;;;;;;;10.55;6.38;;;2.30;53.30;;;;;;5136621;27;20324;-43
2022/02/04 14:29:16;;;;;;;20.02;8.65;;;2.30;53.30;;;;;;5136898;27;20127;-33
2022/02/04 14:53:08;;;;;;;20.83;8.45;;;1.40;53.80;;;;;;5136772;27;20242;-43
2022/02/04 15:03:41;;;;;;;17.88;9.38;;;1.20;54.40;;;;;;5136731;28;20060;-33
2022/02/04 15:06:13;;;;;;;31.67;14.05;;;1.10;54.60;;;;;;5141397;27;20035;-43
2022/02/04 15:08:40;;;;;;;31.35;15.63;;;1.10;54.80;;;;;;5149359;27;20051;-43
2022/02/04 15:11:17;;;;;;;15.55;8.50;;;1.00;54.80;;;;;;5156749;27;20322;-32
2022/02/04 15:13:44;;;;;;;19.05;9.43;;;0.90;54.70;;;;;;5138617;27;20037;-32
2022/02/04 15:16:11;;;;;;;19.80;8.65;;;0.90;55.00;;;;;;5157145;27;20027;-43
2022/02/04 15:18:38;;;;;;;20.73;8.88;;;0.80;55.10;;;;;;5157382;27;20033;-43
2022/02/04 15:21:11;;;;;;;18.83;10.27;;;0.80;55.20;;;;;;5156521;27;20030;-43
2022/02/04 15:23:39;;;;;;;30.15;10.52;;;0.70;55.50;;;;;;5160946;27;20027;-43
2022/02/04 15:26:06;;;;;;;19.17;9.98;;;0.70;55.60;;;;;;5160636;27;20429;-33
2022/02/04 15:28:45;;;;;;;20.80;10.65;;;0.70;55.60;;;;;;5161137;27;20062;-43
2022/02/04 15:34:08;;;;;;;24.83;11.15;;;0.60;55.40;;;;;;5147224;27;20073;-43
2022/02/04 15:36:40;;;;;;;33.10;12.70;;;0.60;55.30;;;;;;5160318;27;20027;-33
2022/02/04 15:39:08;;;;;;;33.10;16.05;;;0.60;55.40;;;;;;5160886;27;20315;-33
2022/02/04 15:41:36;;;;;;;24.55;11.68;;;0.50;55.30;;;;;;5160656;27;20031;-34
2022/02/04 15:44:10;;;;;;;30.92;16.42;;;0.50;55.40;;;;;;5142571;27;20043;-37
2022/02/04 15:49:45;;;;;;;28.55;13.55;;;0.40;55.40;;;;;;5160154;27;20041;-33
2022/02/04 16:03:02;;;;;;;21.60;10.82;;;0.40;55.50;;;;;;5158240;27;20150;-43
2022/02/04 16:05:10;;;;;;;26.20;10.82;;;0.40;55.50;;;;;;5158232;27;20064;-34
2022/02/04 16:07:37;;;;;;;45.05;24.63;;;0.40;55.50;;;;;;5158859;27;20041;-43
2022/02/04 16:12:54;;;;;;;30.30;14.93;;;0.30;55.50;;;;;;5158646;27;20069;-33
2022/02/04 16:15:35;;;;;;;49.70;27.30;;;0.30;55.50;;;;;;5158152;27;20367;-45
2022/02/04 16:18:07;;;;;;;29.63;11.77;;;0.30;55.60;;;;;;5158724;27;20117;-36
2022/02/04 16:21:11;;;;;;;26.77;14.63;;;0.30;55.50;;;;;;5158122;27;20087;-33
2022/02/04 16:23:28;;;;;;;22.92;10.73;;;0.30;55.60;;;;;;5158979;27;20066;-34
2022/02/04 16:26:01;;;;;;;22.88;9.70;;;0.30;55.70;;;;;;5159613;27;20039;-43
2022/02/04 16:28:40;;;;;;;17.92;9.32;;;0.30;55.70;;;;;;5160246;27;20062;-43
2022/02/04 16:31:07;;;;;;;25.27;10.88;;;0.20;55.60;;;;;;5159623;27;20482;-43
2022/02/04 16:33:33;;;;;;;24.70;11.48;;;0.20;55.70;;;;;;5159732;27;20048;-33
2022/02/04 16:36:11;;;;;;;23.17;13.60;;;0.20;55.60;;;;;;5159835;27;20057;-33
2022/02/04 16:38:38;;;;;;;33.58;16.35;;;0.20;55.60;;;;;;5160225;27;20079;-36
2022/02/04 16:41:07;;;;;;;26.85;14.27;;;0.10;55.70;;;;;;5159694;27;20031;-43
2022/02/04 16:43:35;;;;;;;23.58;11.82;;;0.10;55.70;;;;;;5160111;27;20031;-43
2022/02/04 16:46:06;;;;;;;22.33;11.77;;;0.10;55.70;;;;;;5159579;27;20059;-43
2022/02/04 16:48:32;;;;;;;23.92;11.02;;;0.10;55.80;;;;;;5159737;27;20035;-43
2022/02/04 16:50:58;;;;;;;22.20;10.45;;;0.10;55.90;;;;;;5159390;27;20110;-33
2022/02/04 16:53:24;;;;;;;24.63;11.55;;;0.10;55.90;;;;;;5159911;27;20234;-43
2022/02/04 16:55:50;;;;;;;20.63;10.43;;;0.10;55.80;;;;;;5159337;27;20027;-43
2022/02/04 16:58:15;;;;;;;21.88;10.55;;;0.10;55.90;;;;;;5160013;27;20061;-34
2022/02/04 17:00:41;;;;;;;18.00;10.15;;;0.10;56.00;;;;;;5158925;27;20045;-37
2022/02/04 17:03:10;;;;;;;23.90;12.23;;;0.00;56.00;;;;;;5159796;27;20026;-36
2022/02/04 17:05:54;;;;;;;17.83;9.98;;;0.00;56.10;;;;;;5159190;27;20047;-32
2022/02/04 17:08:31;;;;;;;22.35;11.38;;;0.00;56.20;;;;;;5159041;27;20122;-33
2022/02/04 17:10:58;;;;;;;19.58;10.10;;;0.00;56.30;;;;;;5158729;27;20034;-43
2022/02/04 17:13:23;;;;;;;25.42;10.27;;;0.00;56.50;;;;;;5159525;27;20318;-43
2022/02/04 17:15:50;;;;;;;27.08;12.55;;;0.00;56.40;;;;;;5158928;27;20106;-43
2022/02/04 17:18:15;;;;;;;30.00;11.98;;;-0.10;56.30;;;;;;5159423;27;20113;-43
2022/02/04 17:20:42;;;;;;;27.85;11.68;;;-0.10;56.40;;;;;;5158726;27;20130;-33
2022/02/04 17:23:10;;;;;;;30.52;13.93;;;-0.10;56.50;;;;;;5159333;27;20042;-43
2022/02/04 17:25:38;;;;;;;28.63;13.77;;;-0.10;56.50;;;;;;5158868;27;20039;-33
2022/02/04 17:28:04;;;;;;;30.58;13.73;;;-0.20;56.50;;;;;;5158989;27;20079;-43
2022/02/04 17:30:31;;;;;;;39.38;16.15;;;-0.20;56.60;;;;;;5158289;27;20411;-43
2022/02/04 17:32:56;;;;;;;45.42;24.27;;;-0.20;56.90;;;;;;5159149;27;20026;-33
2022/02/04 17:35:25;;;;;;;43.63;18.75;;;-0.20;56.90;;;;;;5158757;27;20087;-33
2022/02/04 17:37:54;;;;;;;40.40;16.95;;;-0.30;56.90;;;;;;5158831;27;20366;-35
2022/02/04 17:40:20;;;;;;;31.40;15.10;;;-0.30;56.90;;;;;;5158476;27;20442;-43
2022/02/04 17:42:47;;;;;;;31.10;14.13;;;-0.30;57.00;;;;;;5158922;27;20042;-33
2022/02/04 17:45:18;;;;;;;44.15;20.00;;;-0.30;57.20;;;;;;5157207;27;20091;-33
2022/02/04 17:47:52;;;;;;;38.72;17.52;;;-0.30;57.20;;;;;;5158567;27;20038;-33
2022/02/04 17:50:24;;;;;;;36.30;15.73;;;-0.30;57.30;;;;;;5158276;27;20039;-33
2022/02/04 17:52:57;;;;;;;32.72;15.93;;;-0.30;57.20;;;;;;5158664;27;20352;-43
2022/02/04 17:55:29;;;;;;;43.75;17.42;;;-0.30;57.20;;;;;;5157935;27;20031;-33
2022/02/04 17:58:13;;;;;;;36.53;16.50;;;-0.40;57.20;;;;;;5158482;27;20087;-42
2022/02/04 18:08:26;;;;;;;34.88;17.80;;;-0.70;57.70;;;;;;5158085;27;20118;-34
2022/02/04 18:10:53;;;;;;;43.78;20.80;;;-0.70;57.80;;;;;;5157655;27;20045;-33
2022/02/04 18:13:19;;;;;;;42.13;20.65;;;-0.80;57.80;;;;;;5158191;27;20037;-33
2022/02/04 18:15:46;;;;;;;39.55;19.83;;;-0.90;58.00;;;;;;5157665;27;20268;-37
2022/02/04 18:18:16;;;;;;;54.40;23.50;;;-0.90;58.20;;;;;;5158253;27;20034;-42
2022/02/04 18:20:43;;;;;;;50.17;22.42;;;-0.90;58.50;;;;;;5157476;27;20038;-42
2022/02/04 18:23:09;;;;;;;38.55;18.17;;;-0.90;58.50;;;;;;5158250;27;20039;-34
2022/02/04 18:25:36;;;;;;;46.15;21.45;;;-0.90;58.60;;;;;;5157655;27;20318;-32
2022/02/04 18:28:03;;;;;;;50.08;23.27;;;-0.90;58.70;;;;;;5158143;27;20359;-33
2022/02/04 18:30:33;;;;;;;49.45;23.77;;;-1.00;58.80;;;;;;5157483;27;20072;-42
2022/02/04 18:32:59;;;;;;;36.15;17.20;;;-1.00;58.90;;;;;;5157913;27;20023;-33
2022/02/04 18:35:25;;;;;;;45.55;23.45;;;-1.00;59.00;;;;;;5157116;27;20041;-32
2022/02/04 18:38:03;;;;;;;42.75;21.90;;;-1.00;59.10;;;;;;5158025;27;20050;-33
2022/02/04 18:45:28;;;;;;;32.35;15.20;;;-1.00;59.40;;;;;;5157364;27;20038;-32
2022/02/04 18:48:12;;;;;;;30.25;14.75;;;-1.00;59.50;;;;;;5157624;27;20034;-32
2022/02/04 18:50:47;;;;;;;30.02;15.60;;;-1.00;59.60;;;;;;5157368;27;20076;-32
2022/02/04 18:58:25;;;;;;;38.67;17.85;;;-1.00;59.80;;;;;;5157871;27;20033;-42
2022/02/04 19:00:53;;;;;;;36.92;16.90;;;-1.10;59.80;;;;;;5156832;27;20035;-32
2022/02/04 19:03:25;;;;;;;41.95;19.70;;;-1.10;60.10;;;;;;5157384;27;20446;-32
2022/02/04 19:08:42;;;;;;;38.35;18.35;;;-1.10;60.30;;;;;;5142334;27;20449;-42
2022/02/04 19:11:08;;;;;;;34.85;18.42;;;-1.20;60.30;;;;;;5156977;27;20034;-31
2022/02/04 19:16:34;;;;;;;28.55;14.60;;;-1.30;60.30;;;;;;5146072;27;20122;-32
2022/02/04 19:24:43;;;;;;;37.05;16.60;;;-1.40;60.80;;;;;;5138723;27;20038;-32
2022/02/04 19:27:09;;;;;;;49.55;21.52;;;-1.40;60.80;;;;;;5156959;27;20031;-37
2022/02/04 19:29:41;;;;;;;74.75;32.13;;;-1.50;60.80;;;;;;5156699;27;20038;-42
2022/02/04 19:32:07;;;;;;;55.20;24.73;;;-1.50;60.90;;;;;;5157565;27;20314;-42
2022/02/04 19:34:33;;;;;;;67.53;28.73;;;-1.40;60.90;;;;;;5156704;27;20019;-42
2022/02/04 19:36:59;;;;;;;58.80;25.73;;;-1.40;60.90;;;;;;5157445;27;20048;-33
2022/02/04 19:39:27;;;;;;;63.13;27.13;;;-1.50;60.80;;;;;;5157022;27;20027;-42
2022/02/04 19:45:07;;;;;;;75.80;32.20;;;-1.60;60.80;;;;;;5072575;28;20028;-42
2022/02/04 19:47:44;;;;;;;78.20;31.58;;;-1.60;60.70;;;;;;5072782;28;20032;-31
2022/02/04 20:07:00;;;;;;;71.53;31.40;;;-2.00;61.00;;;;;;5156495;27;20051;-32
2022/02/04 20:25:54;;;;;;;53.63;26.33;;;-2.40;61.20;;;;;;5159868;27;20422;-42
2022/02/04 20:28:21;;;;;;;43.70;22.27;;;-2.40;61.40;;;;;;5160035;27;20034;-34
2022/02/04 20:30:48;;;;;;;46.75;22.77;;;-2.50;61.50;;;;;;5159932;27;20074;-42
2022/02/04 20:33:15;;;;;;;48.25;23.58;;;-2.50;61.50;;;;;;5160372;27;20440;-42
2022/02/04 20:35:42;;;;;;;40.42;20.20;;;-2.50;61.60;;;;;;5159507;27;20040;-42
2022/02/04 20:38:08;;;;;;;43.65;20.27;;;-2.60;61.60;;;;;;5160245;27;20109;-42